首页
METAR-TAF:

METAR-TAF

机场 :

伦敦国际机场

伦敦, 安大略省, 加拿大

纬度: 43-02N, 经度: 081-09W, 海拔: 278米

当前天气观测

该预报发布于25分钟前的16:32 UTC
风速10节,风向西,有时为19节阵风
温度 5°C
湿度 93%
气压 1012 hPa
能見度: 4.0公里
少量云层高于900英尺
多云层高于1100英尺
阴天层高于2000英尺
小阵雨, 轻雾

METAR: CYXU 301632Z 28010G19KT 2 1/2SM -SHRA BR FEW009 BKN011 OVC020 05/04 A2988 RMK FG1SF1SC5SC1 CVCTV CLD EMBD SLP126

时间: 12:57 (16:57 UTC)

预报

该预报发布于5小时和19分钟前的11:38 UTC
预报有效从30日的 12点(UTC)到 31日的 12点(UTC)
风速12节,风向西转西南,有时为22节阵风
能見度: 10公里
多云层高于2000英尺
阴天层高于6000英尺
小阵雨
短暂存在
从 30日的 12点(UTC)到 30日的 15点(UTC)
能見度: 10公里
散云层高于2000英尺
阴天层高于6000英尺
从 30日的 1500点(UTC)
风速12节,风向西,有时为22节阵风
能見度: 10公里
阴天层高于2000英尺
短暂存在
从 30日的 15点(UTC)到 30日的 21点(UTC)
能見度: 10公里
散云层高于2000英尺
阴天层高于4000英尺
小阵雨
从 30日的 2100点(UTC)
风速10节,风向西北,有时为20节阵风
能見度: 10公里
阴天层高于1000英尺
从 31日的 0300点(UTC)
风速7节,风向西北
能見度: 10公里
多云层高于700英尺
阴天层高于1200英尺
成为
从 31日的 09点(UTC)到 31日的 11点(UTC)
风速7节,风向北转东北

TAF: CYXU 301138Z 3012/3112 25012G22KT P6SM -SHRA BKN020 OVC060 TEMPO 3012/3015 P6SM NSW SCT020 OVC060 FM301500 27012G22KT P6SM OVC020 TEMPO 3015/3021 P6SM -SHRA SCT020 OVC040 FM302100 31010G20KT P6SM OVC010 FM310300 31007KT P6SM BKN007 OVC012 BECMG 3109/3111 02007KT RMK NXT FCST BY 301800Z

超过4000个机场的气象观测和天气预报(METAR&TAF报告)。

可查询的气象台以黄色和红色小点在地图上表示。

将鼠标移到小点上方,可查看气象台名称。

然后点击查看天气观测和预报。

如需切换地图:点击带黑十字的绿色按钮放大地图;点击带横线的绿色按钮缩小地图;或者点击绿色箭头查看邻近地区的地图。


METAR-TAF: